EBAM weather

Amougies Airfield
Mont-de-l'Enclus, Hainaut, Belgium

Public forecast

Using degrees Celsius for public forecast. Weather courtesy of forecast.io.

METAR (pilot weather report)

Closest report is Chièvres Air Base, 16.5 nm (30.5 km) SE. Retrieved 2019/04/23 15:25 UTC (27 minutes ago):

EBCV 231525Z AUTO 09009KT 9999 NCD 22/09 Q0995 BLU

TAF (pilot weather forecast)

Forecast is more than 12 hours old.

Closest forecast is Chièvres Air Base, 16.5 nm (30.5 km) SE. Retrieved 2019/04/13 19:48 UTC (10 days ago):

TAF TAF EBCV 131738Z 1319/1407 36010KT 9999 BKN070 TEMPO 1318/1319 -SHRA SCT030 SCT070 BY EBWM BECMG 1403/1405 4000 BR BKN012 TEMPO 1405/1407 2500 BR BKN005